Time;durP1;ratioP1;P1;durP2;ratioP2;P2;SDS_P1;SDS_P2;PMS_P1;PMS_P2;Temp;Humidity;BMP_temperature;BMP_pressure;BME280_temperature;BME280_humidity;BME280_pressure;Samples;Min_cycle;Max_cycle;Signal;HPM_P1;HPM_P2
2022/04/15 00:00:21;;;;;;;19.98;14.88;;;;;;;;;;2089414;28;20237;-60
2022/04/15 00:01:21;;;;;;;19.50;16.63;;;;;;;;;;2089487;28;20195;-63
2022/04/15 00:02:21;;;;;;;20.70;15.88;;;;;;;;;;2080306;28;20196;-60
2022/04/15 00:03:22;;;;;;;21.60;15.02;;;;;;;;;;2080545;28;20188;-59
2022/04/15 00:04:22;;;;;;;20.02;15.30;;;;;;;;;;2088728;28;20266;-58
2022/04/15 00:05:35;;;;;;;18.70;15.60;;;;;;;;;;2089450;28;20184;-55
2022/04/15 00:06:36;;;;;;;20.10;15.85;;;;;;;;;;2088508;28;20175;-59
2022/04/15 00:07:36;;;;;;;19.10;15.70;;;;;;;;;;2088466;28;20656;-62
2022/04/15 00:08:36;;;;;;;17.90;15.02;;;;;;;;;;2089402;28;20175;-59
2022/04/15 00:09:37;;;;;;;19.55;14.85;;;;;;;;;;2089494;28;20180;-60
2022/04/15 00:10:40;;;;;;;19.88;15.45;;;;;;;;;;2088638;28;20198;-61
2022/04/15 00:11:40;;;;;;;19.27;14.52;;;;;;;;;;2081490;28;20529;-60
2022/04/15 00:12:40;;;;;;;23.45;16.08;;;;;;;;;;2082000;28;20195;-60
2022/04/15 00:13:41;;;;;;;16.20;13.95;;;;;;;;;;2091193;28;20178;-57
2022/04/15 00:14:41;;;;;;;17.92;13.63;;;;;;;;;;2090436;28;20868;-59
2022/04/15 00:16:02;;;;;;;13.73;12.32;;;;;;;;;;2091048;28;20610;-64
2022/04/15 00:17:03;;;;;;;14.38;12.18;;;;;;;;;;2090230;28;20245;-58
2022/04/15 00:18:03;;;;;;;14.27;12.77;;;;;;;;;;2081970;28;20180;-61
2022/04/15 00:19:03;;;;;;;14.95;12.50;;;;;;;;;;2081844;28;20711;-56
2022/04/15 00:20:04;;;;;;;14.05;12.55;;;;;;;;;;2090928;28;20182;-60
2022/04/15 00:21:05;;;;;;;15.60;13.43;;;;;;;;;;2090870;28;20179;-59
2022/04/15 00:22:05;;;;;;;15.63;12.32;;;;;;;;;;2090874;28;20171;-56
2022/04/15 00:23:05;;;;;;;16.13;12.20;;;;;;;;;;2090686;28;20762;-59
2022/04/15 00:24:06;;;;;;;18.13;12.02;;;;;;;;;;2081594;28;20673;-60
2022/04/15 00:25:07;;;;;;;12.73;11.10;;;;;;;;;;2081961;28;20255;-59
2022/04/15 00:26:07;;;;;;;12.73;10.70;;;;;;;;;;2081563;28;20172;-60
2022/04/15 00:27:07;;;;;;;12.75;10.60;;;;;;;;;;2081551;28;20776;-61
2022/04/15 00:28:08;;;;;;;15.43;11.82;;;;;;;;;;2073431;28;20868;-60
2022/04/15 00:29:08;;;;;;;12.07;10.90;;;;;;;;;;2065826;28;20178;-59
2022/04/15 00:30:09;;;;;;;13.32;10.65;;;;;;;;;;2081923;28;20215;-62
2022/04/15 00:31:09;;;;;;;11.68;10.48;;;;;;;;;;2090706;28;20671;-55
2022/04/15 00:32:10;;;;;;;11.60;10.32;;;;;;;;;;2090652;28;20199;-59
2022/04/15 00:33:10;;;;;;;11.98;10.70;;;;;;;;;;2090817;28;20213;-59
2022/04/15 00:34:11;;;;;;;12.48;10.02;;;;;;;;;;2090046;28;20632;-57
2022/04/15 00:35:11;;;;;;;12.35;10.02;;;;;;;;;;2082040;28;20164;-61
2022/04/15 00:36:12;;;;;;;14.02;10.23;;;;;;;;;;2073582;28;20171;-57
2022/04/15 00:37:12;;;;;;;14.07;10.95;;;;;;;;;;2081765;28;20180;-62
2022/04/15 00:38:12;;;;;;;14.40;10.00;;;;;;;;;;2090937;28;20178;-58
2022/04/15 00:39:13;;;;;;;13.40;10.98;;;;;;;;;;2089778;28;20694;-62
2022/04/15 00:40:13;;;;;;;13.38;10.20;;;;;;;;;;2087403;28;20179;-59
2022/04/15 00:41:15;;;;;;;13.68;10.80;;;;;;;;;;2081868;28;20192;-57
2022/04/15 00:42:15;;;;;;;11.93;10.35;;;;;;;;;;2087423;28;20750;-62
2022/04/15 00:43:15;;;;;;;13.00;11.50;;;;;;;;;;2082014;28;20239;-60
2022/04/15 00:44:16;;;;;;;13.05;11.68;;;;;;;;;;2089740;28;20263;-61
2022/04/15 00:45:16;;;;;;;14.95;10.45;;;;;;;;;;2090949;28;20183;-61
2022/04/15 00:46:16;;;;;;;13.88;10.70;;;;;;;;;;2090345;28;20214;-58
2022/04/15 00:47:35;;;;;;;14.40;11.07;;;;;;;;;;2090650;28;20718;-59
2022/04/15 00:48:36;;;;;;;11.45;10.23;;;;;;;;;;2082142;28;20686;-61
2022/04/15 00:49:36;;;;;;;13.68;11.13;;;;;;;;;;2089078;28;20164;-60
2022/04/15 00:50:37;;;;;;;12.25;10.90;;;;;;;;;;2090263;28;20168;-60
2022/04/15 00:51:38;;;;;;;11.43;9.95;;;;;;;;;;2081311;28;20218;-61
2022/04/15 00:52:39;;;;;;;12.13;10.77;;;;;;;;;;2080855;28;20177;-61
2022/04/15 00:53:42;;;;;;;15.18;11.82;;;;;;;;;;2090489;28;20221;-60
2022/04/15 00:54:42;;;;;;;12.88;10.77;;;;;;;;;;2081553;28;20172;-61
2022/04/15 00:55:43;;;;;;;12.57;11.32;;;;;;;;;;2081545;28;20628;-59
2022/04/15 00:56:44;;;;;;;12.27;10.18;;;;;;;;;;2090462;28;20172;-57
2022/04/15 00:57:51;;;;;;;13.93;10.75;;;;;;;;;;2080703;28;20177;-58
2022/04/15 00:58:53;;;;;;;12.13;10.13;;;;;;;;;;2082714;28;20148;-59
2022/04/15 00:59:54;;;;;;;16.23;10.80;;;;;;;;;;2090559;28;20179;-58
2022/04/15 01:00:55;;;;;;;11.85;10.52;;;;;;;;;;2090509;28;20546;-60
2022/04/15 01:01:55;;;;;;;12.68;10.55;;;;;;;;;;2090574;28;20174;-57
2022/04/15 01:02:59;;;;;;;16.33;11.18;;;;;;;;;;2090493;28;20202;-60
2022/04/15 01:03:59;;;;;;;11.40;10.27;;;;;;;;;;2086862;28;20605;-62
2022/04/15 01:05:01;;;;;;;11.52;9.95;;;;;;;;;;2080855;28;20218;-60
2022/04/15 01:06:03;;;;;;;12.63;10.25;;;;;;;;;;2081471;28;20642;-59
2022/04/15 01:07:04;;;;;;;11.25;10.10;;;;;;;;;;2081258;28;20262;-58
2022/04/15 01:08:08;;;;;;;11.95;10.75;;;;;;;;;;2090539;28;20515;-55
2022/04/15 01:09:10;;;;;;;12.23;10.55;;;;;;;;;;2081453;28;20168;-58
2022/04/15 01:10:11;;;;;;;12.15;10.77;;;;;;;;;;2079208;28;20176;-61
2022/04/15 01:11:15;;;;;;;10.23;9.32;;;;;;;;;;2080334;28;20172;-58
2022/04/15 01:12:17;;;;;;;11.30;9.23;;;;;;;;;;2081518;28;20195;-62
2022/04/15 01:13:17;;;;;;;11.23;10.10;;;;;;;;;;2090143;28;20191;-60
2022/04/15 01:14:18;;;;;;;12.85;10.88;;;;;;;;;;2089282;28;20632;-63
2022/04/15 01:15:19;;;;;;;10.88;9.80;;;;;;;;;;2080495;28;20165;-61
2022/04/15 01:16:20;;;;;;;10.95;9.85;;;;;;;;;;2081656;28;20701;-58
2022/04/15 01:17:20;;;;;;;11.38;9.55;;;;;;;;;;2090212;28;20172;-60
2022/04/15 01:18:21;;;;;;;11.60;10.50;;;;;;;;;;2081315;28;20175;-59
2022/04/15 01:19:21;;;;;;;10.55;9.55;;;;;;;;;;2080427;28;20559;-62
2022/04/15 01:20:22;;;;;;;13.05;10.38;;;;;;;;;;2082282;28;20546;-60
2022/04/15 01:21:24;;;;;;;16.77;10.43;;;;;;;;;;2082070;28;20180;-60
2022/04/15 01:22:28;;;;;;;12.73;9.48;;;;;;;;;;2075322;28;20175;-60
2022/04/15 01:23:28;;;;;;;10.25;9.25;;;;;;;;;;2081513;28;20275;-60
2022/04/15 01:24:29;;;;;;;10.65;9.52;;;;;;;;;;2090033;28;20180;-60
2022/04/15 01:25:29;;;;;;;10.55;9.57;;;;;;;;;;2090208;28;20322;-60
2022/04/15 01:26:30;;;;;;;12.02;9.60;;;;;;;;;;2081597;28;20188;-61
2022/04/15 01:27:35;;;;;;;10.05;9.13;;;;;;;;;;2080539;28;20196;-61
2022/04/15 01:28:35;;;;;;;11.90;8.90;;;;;;;;;;2081377;28;20167;-59
2022/04/15 01:29:39;;;;;;;10.73;9.65;;;;;;;;;;2081923;28;20284;-60
2022/04/15 01:30:39;;;;;;;9.77;8.88;;;;;;;;;;2082290;28;20164;-61
2022/04/15 01:31:39;;;;;;;12.07;9.50;;;;;;;;;;2090823;28;20637;-60
2022/04/15 01:32:40;;;;;;;9.63;8.65;;;;;;;;;;2090108;28;20179;-61
2022/04/15 01:33:40;;;;;;;12.10;9.02;;;;;;;;;;2081444;28;20152;-59
2022/04/15 01:34:41;;;;;;;11.13;9.32;;;;;;;;;;2080964;28;20176;-60
2022/04/15 01:35:41;;;;;;;15.85;10.73;;;;;;;;;;2090223;28;20156;-60
2022/04/15 01:36:41;;;;;;;11.40;9.38;;;;;;;;;;2076393;28;20185;-61
2022/04/15 01:37:43;;;;;;;12.30;10.15;;;;;;;;;;2080871;28;20240;-61
2022/04/15 01:38:43;;;;;;;15.73;11.88;;;;;;;;;;2089534;28;20550;-61
2022/04/15 01:39:43;;;;;;;12.20;10.20;;;;;;;;;;2091864;28;20181;-59
2022/04/15 01:40:44;;;;;;;10.98;8.82;;;;;;;;;;2091939;28;20674;-59
2022/04/15 01:41:44;;;;;;;11.25;10.15;;;;;;;;;;2084310;28;20218;-61
2022/04/15 01:42:45;;;;;;;13.13;10.13;;;;;;;;;;2085560;28;20164;-59
2022/04/15 01:43:46;;;;;;;14.10;10.20;;;;;;;;;;2081752;28;20168;-57
2022/04/15 01:44:46;;;;;;;14.65;10.68;;;;;;;;;;2073356;28;20179;-61
2022/04/15 01:45:47;;;;;;;14.48;11.80;;;;;;;;;;2073468;28;20240;-61
2022/04/15 01:46:47;;;;;;;13.07;9.48;;;;;;;;;;2081651;28;20168;-61
2022/04/15 01:47:49;;;;;;;10.65;9.57;;;;;;;;;;2090754;28;20199;-58
2022/04/15 01:48:50;;;;;;;11.15;9.32;;;;;;;;;;2090839;28;20179;-60
2022/04/15 01:49:50;;;;;;;10.52;9.43;;;;;;;;;;2090158;28;20167;-60
2022/04/15 01:50:50;;;;;;;11.07;9.35;;;;;;;;;;2091007;28;20267;-60
2022/04/15 01:51:51;;;;;;;12.65;9.55;;;;;;;;;;2089881;28;20214;-59
2022/04/15 01:52:51;;;;;;;13.50;10.60;;;;;;;;;;2089546;28;20207;-61
2022/04/15 01:53:53;;;;;;;14.15;10.13;;;;;;;;;;2089565;28;20203;-57
2022/04/15 01:54:53;;;;;;;14.35;9.85;;;;;;;;;;2089749;28;20661;-59
2022/04/15 01:55:53;;;;;;;11.50;9.70;;;;;;;;;;2080902;28;20257;-59
2022/04/15 01:56:54;;;;;;;11.25;9.23;;;;;;;;;;2082378;28;20169;-60
2022/04/15 01:57:55;;;;;;;10.18;9.05;;;;;;;;;;2090558;28;20294;-57
2022/04/15 01:58:56;;;;;;;11.45;9.70;;;;;;;;;;2090298;28;20582;-59
2022/04/15 01:59:56;;;;;;;11.20;9.18;;;;;;;;;;2080748;28;20164;-62
2022/04/15 02:00:57;;;;;;;9.95;8.95;;;;;;;;;;2075789;28;20651;-58
2022/04/15 02:01:57;;;;;;;12.38;9.07;;;;;;;;;;2088446;28;20171;-59
2022/04/15 02:02:57;;;;;;;10.63;9.63;;;;;;;;;;2081750;28;20644;-58
2022/04/15 02:03:57;;;;;;;11.25;9.13;;;;;;;;;;2080405;28;20179;-57
2022/04/15 02:04:58;;;;;;;11.60;9.63;;;;;;;;;;2080905;28;20176;-60
2022/04/15 02:05:58;;;;;;;11.65;10.38;;;;;;;;;;2080788;28;20184;-58
2022/04/15 02:06:59;;;;;;;10.43;9.45;;;;;;;;;;2084639;28;20274;-60
2022/04/15 02:07:59;;;;;;;11.15;10.07;;;;;;;;;;2080825;28;20194;-59
2022/04/15 02:08:59;;;;;;;9.82;8.90;;;;;;;;;;2073061;28;20192;-60
2022/04/15 02:10:00;;;;;;;9.95;8.82;;;;;;;;;;2079444;28;20168;-60
2022/04/15 02:11:00;;;;;;;10.55;9.50;;;;;;;;;;2089213;28;20184;-60
2022/04/15 02:12:00;;;;;;;10.50;9.00;;;;;;;;;;2089473;28;20547;-58
2022/04/15 02:13:01;;;;;;;10.35;9.18;;;;;;;;;;2089284;28;20219;-61
2022/04/15 02:14:01;;;;;;;9.02;8.23;;;;;;;;;;2080604;28;20593;-61
2022/04/15 02:15:02;;;;;;;11.68;9.15;;;;;;;;;;2080846;28;20706;-62
2022/04/15 02:16:02;;;;;;;12.27;8.80;;;;;;;;;;2089798;28;20190;-61
2022/04/15 02:17:03;;;;;;;10.07;8.60;;;;;;;;;;2088952;28;20535;-59
2022/04/15 02:18:03;;;;;;;9.63;8.68;;;;;;;;;;2081299;28;20188;-60
2022/04/15 02:19:03;;;;;;;10.57;8.00;;;;;;;;;;2081112;28;20211;-61
2022/04/15 02:20:04;;;;;;;9.70;8.80;;;;;;;;;;2089823;28;20207;-60
2022/04/15 02:21:04;;;;;;;8.77;7.97;;;;;;;;;;2089580;28;20636;-60
2022/04/15 02:22:05;;;;;;;13.23;8.77;;;;;;;;;;2092909;28;20252;-59
2022/04/15 02:23:05;;;;;;;9.98;9.07;;;;;;;;;;2092968;28;20204;-58
2022/04/15 02:24:06;;;;;;;9.70;8.85;;;;;;;;;;2092128;28;20179;-61
2022/04/15 02:25:06;;;;;;;10.07;9.10;;;;;;;;;;2092248;28;20183;-62
2022/04/15 02:26:07;;;;;;;10.20;9.20;;;;;;;;;;2082847;28;20263;-60
2022/04/15 02:27:07;;;;;;;10.32;9.07;;;;;;;;;;2082219;28;20247;-59
2022/04/15 02:28:07;;;;;;;9.55;8.70;;;;;;;;;;2091442;28;20797;-60
2022/04/15 02:29:08;;;;;;;10.38;9.35;;;;;;;;;;2091681;28;20247;-62
2022/04/15 02:30:08;;;;;;;9.85;8.88;;;;;;;;;;2090815;28;20265;-61
2022/04/15 02:31:08;;;;;;;9.35;8.45;;;;;;;;;;2089518;28;20191;-58
2022/04/15 02:32:09;;;;;;;10.05;8.98;;;;;;;;;;2084092;28;20200;-61
2022/04/15 02:33:10;;;;;;;9.55;8.57;;;;;;;;;;2074569;28;20205;-58
2022/04/15 02:34:11;;;;;;;10.35;7.93;;;;;;;;;;2066510;28;20654;-60
2022/04/15 02:35:11;;;;;;;10.27;9.27;;;;;;;;;;2075874;28;20217;-60
2022/04/15 02:36:11;;;;;;;12.85;8.50;;;;;;;;;;2080004;28;20229;-61
2022/04/15 02:37:11;;;;;;;9.25;8.35;;;;;;;;;;2076006;28;20180;-59
2022/04/15 02:38:12;;;;;;;9.23;8.27;;;;;;;;;;2075131;28;20649;-63
2022/04/15 02:39:12;;;;;;;13.15;8.55;;;;;;;;;;2074136;28;20704;-61
2022/04/15 02:40:12;;;;;;;9.73;8.93;;;;;;;;;;2082972;28;20175;-62
2022/04/15 02:41:13;;;;;;;10.10;8.80;;;;;;;;;;2091364;28;20171;-59
2022/04/15 02:42:13;;;;;;;9.50;8.35;;;;;;;;;;2091066;28;20176;-62
2022/04/15 02:43:14;;;;;;;10.07;8.57;;;;;;;;;;2091519;28;20230;-61
2022/04/15 02:44:14;;;;;;;9.43;8.50;;;;;;;;;;2089544;28;20189;-61
2022/04/15 02:45:15;;;;;;;10.57;8.88;;;;;;;;;;2091791;28;20176;-58
2022/04/15 02:46:15;;;;;;;11.18;8.90;;;;;;;;;;2081991;28;20210;-61
2022/04/15 02:47:15;;;;;;;9.85;8.18;;;;;;;;;;2081863;28;20200;-59
2022/04/15 02:48:16;;;;;;;8.85;8.20;;;;;;;;;;2089775;28;20539;-61
2022/04/15 02:49:16;;;;;;;8.32;7.55;;;;;;;;;;2088674;28;20179;-61
2022/04/15 02:50:16;;;;;;;9.45;8.43;;;;;;;;;;2081553;28;20304;-58
2022/04/15 02:51:17;;;;;;;9.63;8.35;;;;;;;;;;2073198;28;20176;-58
2022/04/15 02:52:18;;;;;;;10.00;8.57;;;;;;;;;;2073365;28;20180;-57
2022/04/15 02:53:18;;;;;;;8.52;7.65;;;;;;;;;;2081968;28;20692;-60
2022/04/15 02:54:18;;;;;;;9.23;8.25;;;;;;;;;;2083108;28;20864;-58
2022/04/15 02:55:18;;;;;;;8.85;8.05;;;;;;;;;;2089494;28;20325;-60
2022/04/15 02:56:19;;;;;;;8.80;8.00;;;;;;;;;;2089925;28;20264;-61
2022/04/15 02:57:19;;;;;;;9.68;8.80;;;;;;;;;;2089895;28;20179;-59
2022/04/15 02:58:20;;;;;;;11.60;9.13;;;;;;;;;;2090391;28;20167;-64
2022/04/15 02:59:20;;;;;;;9.55;8.65;;;;;;;;;;2090844;28;20202;-60
2022/04/15 03:00:20;;;;;;;10.20;8.68;;;;;;;;;;2090119;28;20212;-59
2022/04/15 03:01:21;;;;;;;10.23;9.23;;;;;;;;;;2081832;28;20211;-57
2022/04/15 03:02:21;;;;;;;9.88;8.88;;;;;;;;;;2082928;28;20184;-60
2022/04/15 03:03:21;;;;;;;10.52;9.43;;;;;;;;;;2089361;28;20211;-61
2022/04/15 03:04:22;;;;;;;12.88;9.93;;;;;;;;;;2089622;28;20275;-57
2022/04/15 03:05:23;;;;;;;11.95;10.38;;;;;;;;;;2090821;28;20171;-60
2022/04/15 03:06:23;;;;;;;11.70;10.13;;;;;;;;;;2086093;28;20181;-59
2022/04/15 03:07:23;;;;;;;11.60;10.52;;;;;;;;;;2079932;28;20207;-58
2022/04/15 03:08:23;;;;;;;12.20;10.88;;;;;;;;;;2081246;28;20184;-58
2022/04/15 03:09:25;;;;;;;13.25;11.85;;;;;;;;;;2090375;28;20169;-60
2022/04/15 03:10:25;;;;;;;13.98;11.30;;;;;;;;;;2089971;28;20251;-60
2022/04/15 03:11:25;;;;;;;15.98;13.07;;;;;;;;;;2091232;28;20184;-60
2022/04/15 03:12:26;;;;;;;14.48;12.98;;;;;;;;;;2091509;28;20167;-58
2022/04/15 03:13:27;;;;;;;17.75;14.23;;;;;;;;;;2082144;28;20231;-61
2022/04/15 03:14:27;;;;;;;14.32;12.93;;;;;;;;;;2073631;28;20563;-60
2022/04/15 03:15:28;;;;;;;14.10;12.55;;;;;;;;;;2082754;28;20246;-62
2022/04/15 03:16:28;;;;;;;13.48;12.10;;;;;;;;;;2092926;28;20233;-58
2022/04/15 03:17:28;;;;;;;16.10;11.65;;;;;;;;;;2093195;28;20222;-56
2022/04/15 03:18:29;;;;;;;12.77;11.43;;;;;;;;;;2092172;28;20557;-64
2022/04/15 03:19:29;;;;;;;12.95;11.50;;;;;;;;;;2091689;28;20190;-60
2022/04/15 03:20:29;;;;;;;12.88;11.68;;;;;;;;;;2081791;28;20198;-60
2022/04/15 03:21:30;;;;;;;14.25;12.75;;;;;;;;;;2082277;28;20192;-61
2022/04/15 03:22:34;;;;;;;13.13;11.75;;;;;;;;;;2090952;28;20431;-57
2022/04/15 03:23:34;;;;;;;12.88;11.32;;;;;;;;;;2082717;28;20229;-62
2022/04/15 03:24:34;;;;;;;12.55;11.30;;;;;;;;;;2082124;28;20176;-61
2022/04/15 03:25:35;;;;;;;13.02;11.68;;;;;;;;;;2091379;28;20172;-61
2022/04/15 03:26:35;;;;;;;13.45;12.05;;;;;;;;;;2081543;28;20180;-61
2022/04/15 03:27:35;;;;;;;12.07;10.73;;;;;;;;;;2081696;28;20286;-61
2022/04/15 03:28:37;;;;;;;11.50;10.32;;;;;;;;;;2090945;28;20774;-61
2022/04/15 03:29:37;;;;;;;11.60;10.43;;;;;;;;;;2091062;28;20168;-62
2022/04/15 03:30:37;;;;;;;11.82;10.63;;;;;;;;;;2090573;28;20163;-62
2022/04/15 03:31:37;;;;;;;10.93;9.85;;;;;;;;;;2081571;28;20633;-62
2022/04/15 03:32:47;;;;;;;14.18;10.40;;;;;;;;;;2081740;28;20259;-60
2022/04/15 03:33:48;;;;;;;11.85;10.65;;;;;;;;;;2091006;28;20159;-62
2022/04/15 03:34:50;;;;;;;11.25;10.20;;;;;;;;;;2090270;28;20164;-60
2022/04/15 03:35:51;;;;;;;11.35;10.18;;;;;;;;;;2091289;28;20168;-59
2022/04/15 03:36:51;;;;;;;11.73;9.98;;;;;;;;;;2090539;28;20214;-58
2022/04/15 03:37:52;;;;;;;12.52;10.57;;;;;;;;;;2090886;28;20183;-57
2022/04/15 03:38:52;;;;;;;12.95;11.35;;;;;;;;;;2078139;28;20169;-60
2022/04/15 03:39:52;;;;;;;13.05;10.65;;;;;;;;;;2079539;28;20538;-60
2022/04/15 03:40:52;;;;;;;12.00;10.73;;;;;;;;;;2088318;28;20183;-61
2022/04/15 03:41:52;;;;;;;11.52;10.35;;;;;;;;;;2081159;28;20202;-58
2022/04/15 03:42:54;;;;;;;12.32;11.13;;;;;;;;;;2080286;28;20228;-60
2022/04/15 03:43:54;;;;;;;13.32;11.27;;;;;;;;;;2081094;28;20180;-62
2022/04/15 03:44:54;;;;;;;14.50;11.63;;;;;;;;;;2089060;28;20564;-61
2022/04/15 03:45:55;;;;;;;12.23;10.73;;;;;;;;;;2081772;28;20191;-58
2022/04/15 03:46:55;;;;;;;14.38;10.55;;;;;;;;;;2066285;28;20170;-59
2022/04/15 03:47:56;;;;;;;12.25;10.93;;;;;;;;;;2073739;28;20196;-61
2022/04/15 03:48:56;;;;;;;16.88;11.35;;;;;;;;;;2082561;28;20172;-58
2022/04/15 03:49:56;;;;;;;17.92;11.68;;;;;;;;;;2090393;28;20621;-60
2022/04/15 03:50:56;;;;;;;13.32;11.38;;;;;;;;;;2091217;28;20243;-60
2022/04/15 03:51:57;;;;;;;16.38;11.68;;;;;;;;;;2091029;28;20172;-59
2022/04/15 03:52:57;;;;;;;12.20;11.02;;;;;;;;;;2090403;28;20194;-60
2022/04/15 03:53:57;;;;;;;12.65;11.35;;;;;;;;;;2090898;28;20255;-59
2022/04/15 03:54:58;;;;;;;14.40;11.35;;;;;;;;;;2091013;28;20172;-58
2022/04/15 03:55:59;;;;;;;13.88;11.50;;;;;;;;;;2081753;28;20206;-60
2022/04/15 03:56:59;;;;;;;13.18;10.38;;;;;;;;;;2083337;28;20180;-62
2022/04/15 03:57:59;;;;;;;11.65;10.55;;;;;;;;;;2090112;28;20164;-63
2022/04/15 03:58:59;;;;;;;14.80;11.10;;;;;;;;;;2090372;28;20182;-55
2022/04/15 04:00:00;;;;;;;14.93;13.00;;;;;;;;;;2090304;28;20662;-62
2022/04/15 04:01:00;;;;;;;16.42;11.88;;;;;;;;;;2090548;28;20179;-60
2022/04/15 04:02:00;;;;;;;15.27;13.82;;;;;;;;;;2089389;28;20253;-58
2022/04/15 04:03:00;;;;;;;13.73;12.27;;;;;;;;;;2079839;28;20197;-58
2022/04/15 04:04:01;;;;;;;16.58;12.82;;;;;;;;;;2081258;28;20215;-58
2022/04/15 04:05:01;;;;;;;18.40;13.77;;;;;;;;;;2090122;28;20226;-60
2022/04/15 04:06:01;;;;;;;20.92;12.40;;;;;;;;;;2090749;28;20163;-64
2022/04/15 04:07:02;;;;;;;16.33;13.70;;;;;;;;;;2081274;28;20215;-59
2022/04/15 04:08:02;;;;;;;14.52;13.00;;;;;;;;;;2081232;28;20176;-56
2022/04/15 04:09:02;;;;;;;16.55;14.13;;;;;;;;;;2088332;28;20659;-60
2022/04/15 04:10:03;;;;;;;14.52;13.15;;;;;;;;;;2080974;28;20556;-60
2022/04/15 04:11:03;;;;;;;14.32;12.13;;;;;;;;;;2079362;28;20764;-60
2022/04/15 04:12:04;;;;;;;13.85;12.40;;;;;;;;;;2090186;28;20180;-58
2022/04/15 04:13:04;;;;;;;13.98;11.88;;;;;;;;;;2086803;28;20217;-60
2022/04/15 04:14:04;;;;;;;15.13;13.52;;;;;;;;;;2089667;28;20176;-58
2022/04/15 04:15:05;;;;;;;15.02;12.07;;;;;;;;;;2086930;28;20510;-59
2022/04/15 04:16:05;;;;;;;14.80;12.00;;;;;;;;;;2089913;28;20207;-58
2022/04/15 04:17:06;;;;;;;15.07;12.07;;;;;;;;;;2090925;28;20179;-60
2022/04/15 04:18:06;;;;;;;13.45;11.27;;;;;;;;;;2078603;28;20188;-62
2022/04/15 04:19:06;;;;;;;14.25;11.25;;;;;;;;;;2081397;28;20215;-62
2022/04/15 04:20:09;;;;;;;14.02;11.15;;;;;;;;;;2089633;28;20236;-59
2022/04/15 04:21:10;;;;;;;13.68;11.55;;;;;;;;;;2089594;28;20229;-59
2022/04/15 04:22:10;;;;;;;16.98;11.75;;;;;;;;;;2086504;28;20321;-60
2022/04/15 04:23:10;;;;;;;14.18;11.25;;;;;;;;;;2077914;28;20582;-60
2022/04/15 04:24:12;;;;;;;12.93;11.40;;;;;;;;;;2071409;28;20560;-60
2022/04/15 04:25:12;;;;;;;15.00;11.95;;;;;;;;;;2079068;28;20179;-61
2022/04/15 04:26:13;;;;;;;12.70;11.40;;;;;;;;;;2089166;28;20262;-58
2022/04/15 04:27:13;;;;;;;13.43;10.57;;;;;;;;;;2090013;28;20791;-60
2022/04/15 04:28:13;;;;;;;12.32;11.10;;;;;;;;;;2089961;28;20229;-62
2022/04/15 04:29:13;;;;;;;11.80;10.68;;;;;;;;;;2085458;28;20204;-62
2022/04/15 04:30:14;;;;;;;12.77;11.50;;;;;;;;;;2087541;28;20254;-61
2022/04/15 04:31:15;;;;;;;12.73;11.43;;;;;;;;;;2081766;28;20183;-61
2022/04/15 04:32:16;;;;;;;11.70;10.60;;;;;;;;;;2073083;28;20175;-61
2022/04/15 04:33:16;;;;;;;12.57;10.85;;;;;;;;;;2085950;22;20330;-55
2022/04/15 04:34:16;;;;;;;13.55;11.50;;;;;;;;;;2079535;28;20196;-58
2022/04/15 04:35:18;;;;;;;13.90;11.07;;;;;;;;;;2072566;28;20189;-56
2022/04/15 04:36:18;;;;;;;12.88;11.57;;;;;;;;;;2072963;28;20268;-56
2022/04/15 04:37:18;;;;;;;11.98;10.70;;;;;;;;;;2078324;28;20648;-57
2022/04/15 04:38:19;;;;;;;14.32;10.90;;;;;;;;;;2081141;28;20188;-59
2022/04/15 04:39:19;;;;;;;11.68;10.68;;;;;;;;;;2081724;28;20263;-58
2022/04/15 04:40:19;;;;;;;12.27;10.30;;;;;;;;;;2078840;28;20398;-56
2022/04/15 04:41:19;;;;;;;14.15;10.70;;;;;;;;;;2075162;28;20280;-59
2022/04/15 04:42:21;;;;;;;13.15;11.50;;;;;;;;;;2081138;28;20176;-58
2022/04/15 04:43:22;;;;;;;12.43;11.23;;;;;;;;;;2081350;28;20204;-57
2022/04/15 04:44:23;;;;;;;13.95;11.52;;;;;;;;;;2072109;28;20538;-55
2022/04/15 04:45:23;;;;;;;14.85;10.35;;;;;;;;;;2073262;28;20195;-53
2022/04/15 04:46:23;;;;;;;12.13;10.80;;;;;;;;;;2082345;28;20218;-54
2022/04/15 04:47:24;;;;;;;14.10;11.27;;;;;;;;;;2081967;28;20192;-58
2022/04/15 04:48:24;;;;;;;11.45;10.32;;;;;;;;;;2081688;28;20176;-59
2022/04/15 04:49:24;;;;;;;13.40;11.05;;;;;;;;;;2081644;28;20165;-59
2022/04/15 04:50:25;;;;;;;14.20;12.63;;;;;;;;;;2081641;28;20247;-60
2022/04/15 04:51:25;;;;;;;12.40;10.65;;;;;;;;;;2081223;28;20208;-58
2022/04/15 04:52:26;;;;;;;13.20;11.13;;;;;;;;;;2081448;28;20907;-55
2022/04/15 04:53:26;;;;;;;14.40;11.68;;;;;;;;;;2082470;28;20803;-55
2022/04/15 04:54:26;;;;;;;14.95;11.95;;;;;;;;;;2080432;28;20687;-57
2022/04/15 04:55:26;;;;;;;14.25;10.93;;;;;;;;;;2081057;28;20263;-59
2022/04/15 04:56:27;;;;;;;11.75;10.68;;;;;;;;;;2080307;28;20182;-58
2022/04/15 04:57:27;;;;;;;12.68;11.32;;;;;;;;;;2079683;28;20619;-56
2022/04/15 04:58:27;;;;;;;13.13;11.50;;;;;;;;;;2076056;28;20192;-58
2022/04/15 04:59:29;;;;;;;14.82;11.40;;;;;;;;;;2080365;28;20199;-58
2022/04/15 05:00:29;;;;;;;12.07;10.88;;;;;;;;;;2074778;28;20173;-53
2022/04/15 05:01:30;;;;;;;12.45;10.40;;;;;;;;;;2078678;28;20276;-57
2022/04/15 05:02:30;;;;;;;14.40;10.50;;;;;;;;;;2064611;28;20178;-51
2022/04/15 05:03:30;;;;;;;12.10;10.57;;;;;;;;;;2070560;28;20204;-53
2022/04/15 05:04:30;;;;;;;12.45;11.25;;;;;;;;;;2071458;28;20661;-55
2022/04/15 05:05:30;;;;;;;12.65;11.43;;;;;;;;;;2088245;28;20222;-55
2022/04/15 05:06:31;;;;;;;13.20;11.32;;;;;;;;;;2088095;28;20199;-55
2022/04/15 05:07:31;;;;;;;14.60;11.18;;;;;;;;;;2072799;28;20208;-59
2022/04/15 05:08:32;;;;;;;11.68;10.48;;;;;;;;;;2072625;28;20173;-58
2022/04/15 05:09:32;;;;;;;12.32;11.02;;;;;;;;;;2080854;28;20692;-61
2022/04/15 05:10:32;;;;;;;13.05;10.68;;;;;;;;;;2077534;28;20618;-57
2022/04/15 05:11:33;;;;;;;15.82;10.63;;;;;;;;;;2081788;28;20191;-57
2022/04/15 05:12:33;;;;;;;12.32;10.57;;;;;;;;;;2078359;28;20311;-55
2022/04/15 05:13:33;;;;;;;11.27;10.15;;;;;;;;;;2073010;28;20268;-56
2022/04/15 05:14:33;;;;;;;12.23;10.70;;;;;;;;;;2072380;28;20259;-58
2022/04/15 05:15:34;;;;;;;11.65;10.45;;;;;;;;;;2073035;28;20191;-60
2022/04/15 05:16:34;;;;;;;12.60;10.73;;;;;;;;;;2074922;28;20177;-55
2022/04/15 05:17:34;;;;;;;11.43;10.35;;;;;;;;;;2081702;28;20194;-53
2022/04/15 05:18:34;;;;;;;13.27;11.30;;;;;;;;;;2081809;28;20207;-59
2022/04/15 05:19:34;;;;;;;12.73;10.65;;;;;;;;;;2072681;28;20595;-53
2022/04/15 05:20:37;;;;;;;13.65;11.35;;;;;;;;;;2072383;28;20219;-58
2022/04/15 05:21:37;;;;;;;12.85;11.55;;;;;;;;;;2064507;28;20182;-52
2022/04/15 05:22:38;;;;;;;13.43;12.02;;;;;;;;;;2072580;28;20185;-54
2022/04/15 05:23:38;;;;;;;12.85;11.63;;;;;;;;;;2081060;28;20245;-55
2022/04/15 05:24:38;;;;;;;11.52;9.95;;;;;;;;;;2080833;28;20172;-58
2022/04/15 05:25:39;;;;;;;15.23;11.27;;;;;;;;;;2081836;28;20164;-59
2022/04/15 05:26:39;;;;;;;15.43;12.18;;;;;;;;;;2072326;28;20177;-56
2022/04/15 05:27:39;;;;;;;12.85;11.18;;;;;;;;;;2071907;28;20205;-55
2022/04/15 05:28:41;;;;;;;12.77;11.48;;;;;;;;;;2081441;28;20175;-59
2022/04/15 05:29:42;;;;;;;11.70;10.63;;;;;;;;;;2074856;28;20185;-56
2022/04/15 05:30:42;;;;;;;15.05;11.60;;;;;;;;;;2082082;28;20168;-56
2022/04/15 05:31:42;;;;;;;13.48;11.30;;;;;;;;;;2082022;28;20584;-56
2022/04/15 05:32:43;;;;;;;12.82;11.18;;;;;;;;;;2081267;28;20261;-59
2022/04/15 05:33:43;;;;;;;12.85;11.63;;;;;;;;;;2080222;28;20195;-57
2022/04/15 05:34:44;;;;;;;13.40;11.32;;;;;;;;;;2080466;28;20771;-58
2022/04/15 05:35:45;;;;;;;13.65;12.10;;;;;;;;;;2081104;28;20171;-60
2022/04/15 05:36:45;;;;;;;14.05;12.65;;;;;;;;;;2080413;28;20172;-60
2022/04/15 05:37:45;;;;;;;14.95;12.30;;;;;;;;;;2076111;28;20183;-56
2022/04/15 05:38:45;;;;;;;12.68;11.38;;;;;;;;;;2077780;28;20197;-58
2022/04/15 05:39:46;;;;;;;14.90;12.15;;;;;;;;;;2081870;28;20641;-59
2022/04/15 05:40:46;;;;;;;12.48;11.25;;;;;;;;;;2081203;28;20601;-59
2022/04/15 05:41:46;;;;;;;11.73;10.52;;;;;;;;;;2071414;28;20653;-57
2022/04/15 05:42:46;;;;;;;13.65;10.85;;;;;;;;;;2072497;28;20799;-52
2022/04/15 05:43:46;;;;;;;14.18;11.50;;;;;;;;;;2080685;28;20205;-57
2022/04/15 05:44:47;;;;;;;13.38;11.05;;;;;;;;;;2080768;28;20168;-56
2022/04/15 05:45:47;;;;;;;14.50;10.88;;;;;;;;;;2081554;28;20165;-56
2022/04/15 05:46:47;;;;;;;14.43;11.32;;;;;;;;;;2072291;28;20176;-57
2022/04/15 05:47:48;;;;;;;11.75;10.60;;;;;;;;;;2072080;28;20560;-57
2022/04/15 05:48:48;;;;;;;13.68;11.07;;;;;;;;;;2075328;28;20173;-58
2022/04/15 05:49:48;;;;;;;14.30;11.02;;;;;;;;;;2071524;28;20603;-56
2022/04/15 05:50:48;;;;;;;12.23;10.40;;;;;;;;;;2069193;28;20659;-56
2022/04/15 05:51:49;;;;;;;11.18;10.07;;;;;;;;;;2081730;28;20179;-56
2022/04/15 05:52:49;;;;;;;11.38;10.40;;;;;;;;;;2080331;28;20172;-56
2022/04/15 05:53:49;;;;;;;11.00;10.00;;;;;;;;;;2082126;28;20283;-55
2022/04/15 05:54:49;;;;;;;12.25;10.75;;;;;;;;;;2082183;28;20160;-58